sensor_id;sensor_type;location;lat;lon;timestamp;P1;durP1;ratioP1;P2;durP2;ratioP2
17814;SDS011;9031;50.974;11.330;2023-12-22T00:00:45;14.37;;;3.07;;
17814;SDS011;9031;50.974;11.330;2023-12-22T00:03:12;19.63;;;3.37;;
17814;SDS011;9031;50.974;11.330;2023-12-22T00:05:39;16.43;;;2.37;;
17814;SDS011;9031;50.974;11.330;2023-12-22T00:08:04;33.60;;;4.47;;
17814;SDS011;9031;50.974;11.330;2023-12-22T00:10:30;11.83;;;2.60;;
17814;SDS011;9031;50.974;11.330;2023-12-22T00:12:56;19.17;;;3.77;;
17814;SDS011;9031;50.974;11.330;2023-12-22T00:15:21;12.43;;;2.83;;
17814;SDS011;9031;50.974;11.330;2023-12-22T00:17:47;12.27;;;2.40;;
17814;SDS011;9031;50.974;11.330;2023-12-22T00:20:12;17.27;;;3.60;;
17814;SDS011;9031;50.974;11.330;2023-12-22T00:22:39;13.83;;;3.27;;
17814;SDS011;9031;50.974;11.330;2023-12-22T00:25:05;18.33;;;2.90;;
17814;SDS011;9031;50.974;11.330;2023-12-22T00:27:32;14.43;;;2.97;;
17814;SDS011;9031;50.974;11.330;2023-12-22T00:29:57;17.57;;;3.03;;
17814;SDS011;9031;50.974;11.330;2023-12-22T00:32:23;9.33;;;2.57;;
17814;SDS011;9031;50.974;11.330;2023-12-22T00:34:48;12.57;;;2.93;;
17814;SDS011;9031;50.974;11.330;2023-12-22T00:37:14;16.63;;;2.83;;
17814;SDS011;9031;50.974;11.330;2023-12-22T00:39:39;19.60;;;3.07;;
17814;SDS011;9031;50.974;11.330;2023-12-22T00:42:05;11.97;;;2.90;;
17814;SDS011;9031;50.974;11.330;2023-12-22T00:44:31;10.27;;;2.57;;
17814;SDS011;9031;50.974;11.330;2023-12-22T00:46:56;12.67;;;2.97;;
17814;SDS011;9031;50.974;11.330;2023-12-22T00:49:22;13.53;;;2.43;;
17814;SDS011;9031;50.974;11.330;2023-12-22T00:51:47;15.40;;;3.40;;
17814;SDS011;9031;50.974;11.330;2023-12-22T00:54:13;11.90;;;2.30;;
17814;SDS011;9031;50.974;11.330;2023-12-22T00:56:38;15.10;;;2.33;;
17814;SDS011;9031;50.974;11.330;2023-12-22T00:59:04;10.00;;;2.47;;
17814;SDS011;9031;50.974;11.330;2023-12-22T01:01:29;17.57;;;2.90;;
17814;SDS011;9031;50.974;11.330;2023-12-22T01:03:55;10.63;;;2.30;;
17814;SDS011;9031;50.974;11.330;2023-12-22T01:06:21;16.70;;;2.80;;
17814;SDS011;9031;50.974;11.330;2023-12-22T01:08:46;9.60;;;2.10;;
17814;SDS011;9031;50.974;11.330;2023-12-22T01:11:15;14.13;;;3.07;;
17814;SDS011;9031;50.974;11.330;2023-12-22T01:13:41;9.67;;;2.97;;
17814;SDS011;9031;50.974;11.330;2023-12-22T01:16:07;12.63;;;2.57;;
17814;SDS011;9031;50.974;11.330;2023-12-22T01:18:32;9.93;;;2.57;;
17814;SDS011;9031;50.974;11.330;2023-12-22T01:20:58;12.00;;;2.77;;
17814;SDS011;9031;50.974;11.330;2023-12-22T01:23:24;13.07;;;2.20;;
17814;SDS011;9031;50.974;11.330;2023-12-22T01:25:50;9.90;;;2.83;;
17814;SDS011;9031;50.974;11.330;2023-12-22T01:28:16;8.80;;;2.20;;
17814;SDS011;9031;50.974;11.330;2023-12-22T01:30:41;10.30;;;2.30;;
17814;SDS011;9031;50.974;11.330;2023-12-22T01:33:07;14.37;;;3.00;;
17814;SDS011;9031;50.974;11.330;2023-12-22T01:35:32;11.33;;;2.77;;
17814;SDS011;9031;50.974;11.330;2023-12-22T01:37:58;12.77;;;2.17;;
17814;SDS011;9031;50.974;11.330;2023-12-22T01:40:23;8.70;;;2.10;;
17814;SDS011;9031;50.974;11.330;2023-12-22T01:42:49;13.40;;;2.27;;
17814;SDS011;9031;50.974;11.330;2023-12-22T01:45:14;8.07;;;2.07;;
17814;SDS011;9031;50.974;11.330;2023-12-22T01:47:40;13.30;;;2.73;;
17814;SDS011;9031;50.974;11.330;2023-12-22T01:50:06;6.50;;;2.57;;
17814;SDS011;9031;50.974;11.330;2023-12-22T01:52:35;7.40;;;2.50;;
17814;SDS011;9031;50.974;11.330;2023-12-22T01:55:02;11.53;;;2.30;;
17814;SDS011;9031;50.974;11.330;2023-12-22T01:57:28;14.03;;;2.70;;
17814;SDS011;9031;50.974;11.330;2023-12-22T01:59:55;8.23;;;2.30;;
17814;SDS011;9031;50.974;11.330;2023-12-22T02:02:22;6.07;;;2.13;;
17814;SDS011;9031;50.974;11.330;2023-12-22T02:04:47;9.43;;;2.00;;
17814;SDS011;9031;50.974;11.330;2023-12-22T02:07:13;19.03;;;2.73;;
17814;SDS011;9031;50.974;11.330;2023-12-22T02:09:38;11.07;;;2.47;;
17814;SDS011;9031;50.974;11.330;2023-12-22T02:12:04;11.60;;;2.40;;
17814;SDS011;9031;50.974;11.330;2023-12-22T02:14:30;5.17;;;2.10;;
17814;SDS011;9031;50.974;11.330;2023-12-22T02:17:02;9.53;;;2.30;;
17814;SDS011;9031;50.974;11.330;2023-12-22T02:19:51;7.40;;;2.23;;
17814;SDS011;9031;50.974;11.330;2023-12-22T02:22:18;11.47;;;2.20;;
17814;SDS011;9031;50.974;11.330;2023-12-22T02:24:43;10.97;;;2.53;;
17814;SDS011;9031;50.974;11.330;2023-12-22T02:29:54;11.33;;;2.23;;
17814;SDS011;9031;50.974;11.330;2023-12-22T02:32:29;9.07;;;1.90;;
17814;SDS011;9031;50.974;11.330;2023-12-22T02:34:57;6.03;;;1.83;;
17814;SDS011;9031;50.974;11.330;2023-12-22T02:37:23;8.67;;;1.90;;
17814;SDS011;9031;50.974;11.330;2023-12-22T02:39:51;6.53;;;1.73;;
17814;SDS011;9031;50.974;11.330;2023-12-22T02:42:18;6.33;;;1.73;;
17814;SDS011;9031;50.974;11.330;2023-12-22T02:44:45;5.17;;;2.00;;
17814;SDS011;9031;50.974;11.330;2023-12-22T02:47:10;5.13;;;1.83;;
17814;SDS011;9031;50.974;11.330;2023-12-22T02:49:36;3.23;;;1.73;;
17814;SDS011;9031;50.974;11.330;2023-12-22T02:52:01;5.87;;;2.10;;
17814;SDS011;9031;50.974;11.330;2023-12-22T02:54:27;5.57;;;2.00;;
17814;SDS011;9031;50.974;11.330;2023-12-22T02:56:54;7.27;;;1.80;;
17814;SDS011;9031;50.974;11.330;2023-12-22T02:59:20;6.60;;;1.97;;
17814;SDS011;9031;50.974;11.330;2023-12-22T03:01:46;5.67;;;1.90;;
17814;SDS011;9031;50.974;11.330;2023-12-22T03:04:11;7.47;;;2.47;;
17814;SDS011;9031;50.974;11.330;2023-12-22T03:06:37;14.30;;;2.47;;
17814;SDS011;9031;50.974;11.330;2023-12-22T03:09:02;9.00;;;2.50;;
17814;SDS011;9031;50.974;11.330;2023-12-22T03:11:28;16.17;;;2.57;;
17814;SDS011;9031;50.974;11.330;2023-12-22T03:13:53;5.87;;;1.80;;
17814;SDS011;9031;50.974;11.330;2023-12-22T03:16:19;10.87;;;1.93;;
17814;SDS011;9031;50.974;11.330;2023-12-22T03:18:44;10.10;;;2.00;;
17814;SDS011;9031;50.974;11.330;2023-12-22T03:21:16;7.30;;;2.27;;
17814;SDS011;9031;50.974;11.330;2023-12-22T03:23:43;4.37;;;1.70;;
17814;SDS011;9031;50.974;11.330;2023-12-22T03:26:09;8.20;;;2.60;;
17814;SDS011;9031;50.974;11.330;2023-12-22T03:28:34;7.70;;;1.67;;
17814;SDS011;9031;50.974;11.330;2023-12-22T03:31:00;7.93;;;2.00;;
17814;SDS011;9031;50.974;11.330;2023-12-22T03:33:25;4.37;;;1.50;;
17814;SDS011;9031;50.974;11.330;2023-12-22T03:35:51;7.00;;;2.10;;
17814;SDS011;9031;50.974;11.330;2023-12-22T03:38:16;10.17;;;2.13;;
17814;SDS011;9031;50.974;11.330;2023-12-22T03:40:42;7.60;;;1.97;;
17814;SDS011;9031;50.974;11.330;2023-12-22T03:43:07;6.77;;;2.13;;
17814;SDS011;9031;50.974;11.330;2023-12-22T03:45:34;6.97;;;1.80;;
17814;SDS011;9031;50.974;11.330;2023-12-22T03:47:59;5.10;;;1.50;;
17814;SDS011;9031;50.974;11.330;2023-12-22T03:50:25;5.70;;;2.00;;
17814;SDS011;9031;50.974;11.330;2023-12-22T03:52:50;11.33;;;1.90;;
17814;SDS011;9031;50.974;11.330;2023-12-22T03:55:16;5.57;;;1.63;;
17814;SDS011;9031;50.974;11.330;2023-12-22T03:57:42;4.73;;;1.50;;
17814;SDS011;9031;50.974;11.330;2023-12-22T04:00:08;5.73;;;1.37;;
17814;SDS011;9031;50.974;11.330;2023-12-22T04:02:34;5.33;;;1.43;;
17814;SDS011;9031;50.974;11.330;2023-12-22T04:04:59;4.70;;;1.57;;
17814;SDS011;9031;50.974;11.330;2023-12-22T04:07:25;5.50;;;1.60;;
17814;SDS011;9031;50.974;11.330;2023-12-22T04:09:50;3.60;;;1.23;;
17814;SDS011;9031;50.974;11.330;2023-12-22T04:12:16;5.67;;;1.60;;
17814;SDS011;9031;50.974;11.330;2023-12-22T04:14:41;1.40;;;1.30;;
17814;SDS011;9031;50.974;11.330;2023-12-22T04:17:07;2.47;;;1.43;;
17814;SDS011;9031;50.974;11.330;2023-12-22T04:19:32;1.03;;;1.00;;
17814;SDS011;9031;50.974;11.330;2023-12-22T04:21:58;1.70;;;1.43;;
17814;SDS011;9031;50.974;11.330;2023-12-22T04:24:24;2.63;;;1.47;;
17814;SDS011;9031;50.974;11.330;2023-12-22T04:26:49;1.53;;;1.17;;
17814;SDS011;9031;50.974;11.330;2023-12-22T04:29:15;2.50;;;1.30;;
17814;SDS011;9031;50.974;11.330;2023-12-22T04:31:40;1.83;;;1.40;;
17814;SDS011;9031;50.974;11.330;2023-12-22T04:34:06;1.37;;;1.30;;
17814;SDS011;9031;50.974;11.330;2023-12-22T04:36:31;4.27;;;1.40;;
17814;SDS011;9031;50.974;11.330;2023-12-22T04:38:57;2.70;;;1.23;;
17814;SDS011;9031;50.974;11.330;2023-12-22T04:41:22;3.60;;;1.50;;
17814;SDS011;9031;50.974;11.330;2023-12-22T04:43:48;3.43;;;1.27;;
17814;SDS011;9031;50.974;11.330;2023-12-22T04:46:14;3.00;;;1.37;;
17814;SDS011;9031;50.974;11.330;2023-12-22T04:48:39;2.73;;;1.33;;
17814;SDS011;9031;50.974;11.330;2023-12-22T04:51:05;5.03;;;1.23;;
17814;SDS011;9031;50.974;11.330;2023-12-22T04:53:30;5.97;;;1.70;;
17814;SDS011;9031;50.974;11.330;2023-12-22T04:55:55;1.83;;;1.57;;
17814;SDS011;9031;50.974;11.330;2023-12-22T04:58:21;6.63;;;1.73;;
17814;SDS011;9031;50.974;11.330;2023-12-22T05:00:47;2.90;;;1.70;;
17814;SDS011;9031;50.974;11.330;2023-12-22T05:03:12;5.93;;;1.30;;
17814;SDS011;9031;50.974;11.330;2023-12-22T05:05:38;8.20;;;2.00;;
17814;SDS011;9031;50.974;11.330;2023-12-22T05:08:03;9.13;;;1.90;;
17814;SDS011;9031;50.974;11.330;2023-12-22T05:10:29;9.13;;;1.63;;
17814;SDS011;9031;50.974;11.330;2023-12-22T05:12:55;5.33;;;1.93;;
17814;SDS011;9031;50.974;11.330;2023-12-22T05:15:20;3.60;;;1.47;;
17814;SDS011;9031;50.974;11.330;2023-12-22T05:17:46;4.60;;;1.73;;
17814;SDS011;9031;50.974;11.330;2023-12-22T05:20:11;4.47;;;1.33;;
17814;SDS011;9031;50.974;11.330;2023-12-22T05:22:37;4.63;;;1.60;;
17814;SDS011;9031;50.974;11.330;2023-12-22T05:25:03;4.53;;;1.70;;
17814;SDS011;9031;50.974;11.330;2023-12-22T05:27:29;6.67;;;1.70;;
17814;SDS011;9031;50.974;11.330;2023-12-22T05:29:55;5.50;;;1.80;;
17814;SDS011;9031;50.974;11.330;2023-12-22T05:32:20;6.17;;;1.87;;
17814;SDS011;9031;50.974;11.330;2023-12-22T05:34:46;8.17;;;1.70;;
17814;SDS011;9031;50.974;11.330;2023-12-22T05:37:11;4.97;;;1.47;;
17814;SDS011;9031;50.974;11.330;2023-12-22T05:39:36;4.50;;;1.43;;
17814;SDS011;9031;50.974;11.330;2023-12-22T05:42:02;8.70;;;2.00;;
17814;SDS011;9031;50.974;11.330;2023-12-22T05:44:27;7.53;;;1.87;;
17814;SDS011;9031;50.974;11.330;2023-12-22T05:46:56;7.97;;;1.87;;
17814;SDS011;9031;50.974;11.330;2023-12-22T05:49:22;5.43;;;1.60;;
17814;SDS011;9031;50.974;11.330;2023-12-22T05:51:48;7.23;;;2.00;;
17814;SDS011;9031;50.974;11.330;2023-12-22T05:54:14;7.13;;;1.90;;
17814;SDS011;9031;50.974;11.330;2023-12-22T05:56:41;6.67;;;1.80;;
17814;SDS011;9031;50.974;11.330;2023-12-22T05:59:07;3.77;;;1.63;;
17814;SDS011;9031;50.974;11.330;2023-12-22T06:01:32;5.20;;;1.63;;
17814;SDS011;9031;50.974;11.330;2023-12-22T06:03:58;5.77;;;1.80;;
17814;SDS011;9031;50.974;11.330;2023-12-22T06:06:23;4.37;;;1.77;;
17814;SDS011;9031;50.974;11.330;2023-12-22T06:08:49;11.07;;;1.80;;
17814;SDS011;9031;50.974;11.330;2023-12-22T06:11:15;5.77;;;2.10;;
17814;SDS011;9031;50.974;11.330;2023-12-22T06:13:40;2.90;;;1.50;;
17814;SDS011;9031;50.974;11.330;2023-12-22T06:16:06;4.40;;;1.90;;
17814;SDS011;9031;50.974;11.330;2023-12-22T06:18:35;4.10;;;1.70;;
17814;SDS011;9031;50.974;11.330;2023-12-22T06:21:00;5.10;;;1.70;;
17814;SDS011;9031;50.974;11.330;2023-12-22T06:23:26;2.47;;;1.60;;
17814;SDS011;9031;50.974;11.330;2023-12-22T06:25:51;6.97;;;2.17;;
17814;SDS011;9031;50.974;11.330;2023-12-22T06:28:17;3.87;;;1.53;;
17814;SDS011;9031;50.974;11.330;2023-12-22T06:30:42;6.40;;;2.10;;
17814;SDS011;9031;50.974;11.330;2023-12-22T06:33:09;3.97;;;1.63;;
17814;SDS011;9031;50.974;11.330;2023-12-22T06:35:34;7.60;;;1.83;;
17814;SDS011;9031;50.974;11.330;2023-12-22T06:38:00;10.27;;;2.10;;
17814;SDS011;9031;50.974;11.330;2023-12-22T06:40:28;6.20;;;1.53;;
17814;SDS011;9031;50.974;11.330;2023-12-22T06:42:54;7.07;;;1.90;;
17814;SDS011;9031;50.974;11.330;2023-12-22T06:45:19;12.30;;;2.43;;
17814;SDS011;9031;50.974;11.330;2023-12-22T06:47:45;6.43;;;1.80;;
17814;SDS011;9031;50.974;11.330;2023-12-22T06:50:11;13.33;;;2.00;;
17814;SDS011;9031;50.974;11.330;2023-12-22T06:52:36;6.83;;;1.40;;
17814;SDS011;9031;50.974;11.330;2023-12-22T06:55:02;7.07;;;1.87;;
17814;SDS011;9031;50.974;11.330;2023-12-22T06:57:27;3.27;;;1.37;;
17814;SDS011;9031;50.974;11.330;2023-12-22T06:59:53;3.50;;;1.10;;
17814;SDS011;9031;50.974;11.330;2023-12-22T07:02:18;2.60;;;1.10;;
17814;SDS011;9031;50.974;11.330;2023-12-22T07:05:03;3.50;;;1.27;;
17814;SDS011;9031;50.974;11.330;2023-12-22T07:07:31;4.93;;;1.30;;
17814;SDS011;9031;50.974;11.330;2023-12-22T07:09:57;4.97;;;1.33;;
17814;SDS011;9031;50.974;11.330;2023-12-22T07:12:22;3.00;;;1.23;;
17814;SDS011;9031;50.974;11.330;2023-12-22T07:14:48;7.30;;;1.37;;
17814;SDS011;9031;50.974;11.330;2023-12-22T07:17:13;2.00;;;1.10;;
17814;SDS011;9031;50.974;11.330;2023-12-22T07:19:39;2.10;;;1.10;;
17814;SDS011;9031;50.974;11.330;2023-12-22T07:22:05;1.70;;;1.17;;
17814;SDS011;9031;50.974;11.330;2023-12-22T07:24:30;4.90;;;1.20;;
17814;SDS011;9031;50.974;11.330;2023-12-22T07:26:55;3.67;;;1.10;;
17814;SDS011;9031;50.974;11.330;2023-12-22T07:29:21;2.17;;;1.50;;
17814;SDS011;9031;50.974;11.330;2023-12-22T07:31:46;2.60;;;1.13;;
17814;SDS011;9031;50.974;11.330;2023-12-22T07:34:12;11.77;;;1.40;;
17814;SDS011;9031;50.974;11.330;2023-12-22T07:36:38;9.90;;;1.93;;
17814;SDS011;9031;50.974;11.330;2023-12-22T07:39:04;9.37;;;1.93;;
17814;SDS011;9031;50.974;11.330;2023-12-22T07:41:31;6.70;;;1.90;;
17814;SDS011;9031;50.974;11.330;2023-12-22T07:43:56;1.97;;;1.20;;
17814;SDS011;9031;50.974;11.330;2023-12-22T07:46:22;6.20;;;1.33;;
17814;SDS011;9031;50.974;11.330;2023-12-22T07:48:47;1.17;;;1.00;;
17814;SDS011;9031;50.974;11.330;2023-12-22T07:51:13;1.87;;;1.20;;
17814;SDS011;9031;50.974;11.330;2023-12-22T07:53:39;3.47;;;1.50;;
17814;SDS011;9031;50.974;11.330;2023-12-22T07:56:05;19.77;;;2.87;;
17814;SDS011;9031;50.974;11.330;2023-12-22T07:58:31;5.23;;;1.37;;
17814;SDS011;9031;50.974;11.330;2023-12-22T08:00:57;4.43;;;1.30;;
17814;SDS011;9031;50.974;11.330;2023-12-22T08:03:23;6.33;;;1.47;;
17814;SDS011;9031;50.974;11.330;2023-12-22T08:05:49;2.97;;;1.43;;
17814;SDS011;9031;50.974;11.330;2023-12-22T08:08:14;3.50;;;1.20;;
17814;SDS011;9031;50.974;11.330;2023-12-22T08:10:40;2.40;;;1.30;;
17814;SDS011;9031;50.974;11.330;2023-12-22T08:13:06;5.20;;;1.20;;
17814;SDS011;9031;50.974;11.330;2023-12-22T08:15:31;4.67;;;1.53;;
17814;SDS011;9031;50.974;11.330;2023-12-22T08:17:57;1.93;;;1.13;;
17814;SDS011;9031;50.974;11.330;2023-12-22T08:20:23;8.63;;;1.77;;
17814;SDS011;9031;50.974;11.330;2023-12-22T08:22:48;6.20;;;1.50;;
17814;SDS011;9031;50.974;11.330;2023-12-22T08:25:15;4.10;;;1.40;;
17814;SDS011;9031;50.974;11.330;2023-12-22T08:27:41;4.67;;;1.83;;
17814;SDS011;9031;50.974;11.330;2023-12-22T08:30:07;4.43;;;1.40;;
17814;SDS011;9031;50.974;11.330;2023-12-22T08:32:36;5.40;;;1.63;;
17814;SDS011;9031;50.974;11.330;2023-12-22T08:35:01;3.03;;;1.27;;
17814;SDS011;9031;50.974;11.330;2023-12-22T08:37:29;7.33;;;1.57;;
17814;SDS011;9031;50.974;11.330;2023-12-22T08:39:54;4.77;;;1.43;;
17814;SDS011;9031;50.974;11.330;2023-12-22T08:42:20;8.90;;;2.00;;
17814;SDS011;9031;50.974;11.330;2023-12-22T08:44:47;6.00;;;1.40;;
17814;SDS011;9031;50.974;11.330;2023-12-22T08:47:12;9.83;;;1.80;;
17814;SDS011;9031;50.974;11.330;2023-12-22T08:49:38;7.37;;;1.73;;
17814;SDS011;9031;50.974;11.330;2023-12-22T08:52:03;7.57;;;1.80;;
17814;SDS011;9031;50.974;11.330;2023-12-22T08:54:29;5.13;;;1.60;;
17814;SDS011;9031;50.974;11.330;2023-12-22T08:56:55;6.67;;;1.90;;
17814;SDS011;9031;50.974;11.330;2023-12-22T08:59:20;9.03;;;2.40;;
17814;SDS011;9031;50.974;11.330;2023-12-22T09:01:46;8.23;;;2.10;;
17814;SDS011;9031;50.974;11.330;2023-12-22T09:04:12;6.63;;;1.47;;
17814;SDS011;9031;50.974;11.330;2023-12-22T09:06:37;5.53;;;1.40;;
17814;SDS011;9031;50.974;11.330;2023-12-22T09:09:03;6.87;;;1.60;;
17814;SDS011;9031;50.974;11.330;2023-12-22T09:11:29;7.83;;;1.97;;
17814;SDS011;9031;50.974;11.330;2023-12-22T09:13:54;8.50;;;1.43;;
17814;SDS011;9031;50.974;11.330;2023-12-22T09:16:20;7.57;;;1.70;;
17814;SDS011;9031;50.974;11.330;2023-12-22T09:18:47;6.13;;;1.63;;
17814;SDS011;9031;50.974;11.330;2023-12-22T09:21:12;5.80;;;1.73;;
17814;SDS011;9031;50.974;11.330;2023-12-22T09:23:38;4.93;;;1.27;;
17814;SDS011;9031;50.974;11.330;2023-12-22T09:26:03;6.80;;;1.50;;
17814;SDS011;9031;50.974;11.330;2023-12-22T09:28:29;6.23;;;1.10;;
17814;SDS011;9031;50.974;11.330;2023-12-22T09:30:55;9.07;;;1.73;;
17814;SDS011;9031;50.974;11.330;2023-12-22T09:33:21;8.20;;;1.80;;
17814;SDS011;9031;50.974;11.330;2023-12-22T09:35:48;9.13;;;1.77;;
17814;SDS011;9031;50.974;11.330;2023-12-22T09:38:13;3.37;;;1.30;;
17814;SDS011;9031;50.974;11.330;2023-12-22T09:40:39;3.43;;;1.23;;
17814;SDS011;9031;50.974;11.330;2023-12-22T09:43:05;7.40;;;1.40;;
17814;SDS011;9031;50.974;11.330;2023-12-22T09:45:35;7.97;;;1.60;;
17814;SDS011;9031;50.974;11.330;2023-12-22T09:48:02;5.60;;;1.53;;
17814;SDS011;9031;50.974;11.330;2023-12-22T09:50:30;6.73;;;1.60;;
17814;SDS011;9031;50.974;11.330;2023-12-22T09:52:55;11.60;;;1.73;;
17814;SDS011;9031;50.974;11.330;2023-12-22T09:55:21;7.00;;;1.53;;
17814;SDS011;9031;50.974;11.330;2023-12-22T09:57:47;6.87;;;1.53;;
17814;SDS011;9031;50.974;11.330;2023-12-22T10:00:14;7.27;;;1.60;;
17814;SDS011;9031;50.974;11.330;2023-12-22T10:02:41;7.57;;;1.60;;
17814;SDS011;9031;50.974;11.330;2023-12-22T10:05:08;6.37;;;1.40;;
17814;SDS011;9031;50.974;11.330;2023-12-22T10:07:35;3.87;;;0.93;;
17814;SDS011;9031;50.974;11.330;2023-12-22T10:10:00;7.93;;;1.40;;
17814;SDS011;9031;50.974;11.330;2023-12-22T10:12:28;8.93;;;1.80;;
17814;SDS011;9031;50.974;11.330;2023-12-22T10:14:56;4.60;;;1.33;;
17814;SDS011;9031;50.974;11.330;2023-12-22T10:17:24;4.37;;;1.67;;
17814;SDS011;9031;50.974;11.330;2023-12-22T10:19:50;6.67;;;1.30;;
17814;SDS011;9031;50.974;11.330;2023-12-22T10:22:16;5.03;;;1.43;;
17814;SDS011;9031;50.974;11.330;2023-12-22T10:27:09;3.30;;;1.30;;
17814;SDS011;9031;50.974;11.330;2023-12-22T10:29:36;7.43;;;1.77;;
17814;SDS011;9031;50.974;11.330;2023-12-22T10:32:02;5.60;;;1.30;;
17814;SDS011;9031;50.974;11.330;2023-12-22T10:34:29;5.57;;;1.53;;
17814;SDS011;9031;50.974;11.330;2023-12-22T10:36:55;11.60;;;1.80;;
17814;SDS011;9031;50.974;11.330;2023-12-22T10:39:21;5.87;;;1.63;;
17814;SDS011;9031;50.974;11.330;2023-12-22T10:41:46;3.50;;;1.37;;
17814;SDS011;9031;50.974;11.330;2023-12-22T10:44:14;7.20;;;1.73;;
17814;SDS011;9031;50.974;11.330;2023-12-22T10:46:40;8.07;;;1.47;;
17814;SDS011;9031;50.974;11.330;2023-12-22T10:49:05;8.37;;;1.97;;
17814;SDS011;9031;50.974;11.330;2023-12-22T10:51:32;3.70;;;1.50;;
17814;SDS011;9031;50.974;11.330;2023-12-22T10:53:58;6.17;;;1.47;;
17814;SDS011;9031;50.974;11.330;2023-12-22T10:56:24;6.83;;;1.97;;
17814;SDS011;9031;50.974;11.330;2023-12-22T10:58:51;7.93;;;1.60;;
17814;SDS011;9031;50.974;11.330;2023-12-22T11:01:17;5.00;;;1.43;;
17814;SDS011;9031;50.974;11.330;2023-12-22T11:03:45;7.83;;;1.87;;
17814;SDS011;9031;50.974;11.330;2023-12-22T11:06:15;6.83;;;1.67;;
17814;SDS011;9031;50.974;11.330;2023-12-22T11:08:42;4.60;;;2.03;;
17814;SDS011;9031;50.974;11.330;2023-12-22T11:11:54;4.07;;;1.30;;
17814;SDS011;9031;50.974;11.330;2023-12-22T11:14:01;5.77;;;1.50;;
17814;SDS011;9031;50.974;11.330;2023-12-22T11:16:28;12.30;;;1.70;;
17814;SDS011;9031;50.974;11.330;2023-12-22T11:18:54;5.07;;;1.53;;
17814;SDS011;9031;50.974;11.330;2023-12-22T11:21:24;5.77;;;1.10;;
17814;SDS011;9031;50.974;11.330;2023-12-22T11:23:51;2.53;;;1.00;;
17814;SDS011;9031;50.974;11.330;2023-12-22T11:26:18;3.90;;;0.90;;
17814;SDS011;9031;50.974;11.330;2023-12-22T11:28:47;6.77;;;1.50;;
17814;SDS011;9031;50.974;11.330;2023-12-22T11:31:16;2.23;;;0.93;;
17814;SDS011;9031;50.974;11.330;2023-12-22T11:33:46;3.97;;;1.20;;
17814;SDS011;9031;50.974;11.330;2023-12-22T11:36:16;4.17;;;1.20;;
17814;SDS011;9031;50.974;11.330;2023-12-22T11:38:46;4.43;;;0.93;;
17814;SDS011;9031;50.974;11.330;2023-12-22T11:41:29;8.83;;;1.60;;
17814;SDS011;9031;50.974;11.330;2023-12-22T11:43:57;1.97;;;0.87;;
17814;SDS011;9031;50.974;11.330;2023-12-22T11:46:24;3.87;;;1.00;;
17814;SDS011;9031;50.974;11.330;2023-12-22T11:48:50;0.73;;;0.60;;
17814;SDS011;9031;50.974;11.330;2023-12-22T11:51:16;1.10;;;0.80;;
17814;SDS011;9031;50.974;11.330;2023-12-22T11:53:43;1.40;;;1.00;;
17814;SDS011;9031;50.974;11.330;2023-12-22T11:56:09;1.23;;;0.80;;
17814;SDS011;9031;50.974;11.330;2023-12-22T11:58:48;2.90;;;1.13;;
17814;SDS011;9031;50.974;11.330;2023-12-22T12:01:19;2.77;;;1.07;;
17814;SDS011;9031;50.974;11.330;2023-12-22T12:03:53;2.77;;;1.00;;
17814;SDS011;9031;50.974;11.330;2023-12-22T12:06:22;2.13;;;0.80;;
17814;SDS011;9031;50.974;11.330;2023-12-22T12:08:51;2.53;;;0.90;;
17814;SDS011;9031;50.974;11.330;2023-12-22T12:11:20;3.60;;;1.10;;
17814;SDS011;9031;50.974;11.330;2023-12-22T12:13:46;1.07;;;0.97;;
17814;SDS011;9031;50.974;11.330;2023-12-22T12:16:13;1.93;;;0.97;;
17814;SDS011;9031;50.974;11.330;2023-12-22T12:18:43;1.37;;;1.00;;
17814;SDS011;9031;50.974;11.330;2023-12-22T12:21:10;4.03;;;1.10;;
17814;SDS011;9031;50.974;11.330;2023-12-22T12:23:36;1.27;;;0.77;;
17814;SDS011;9031;50.974;11.330;2023-12-22T12:26:03;2.10;;;0.90;;
17814;SDS011;9031;50.974;11.330;2023-12-22T12:28:32;6.03;;;1.40;;
17814;SDS011;9031;50.974;11.330;2023-12-22T12:31:05;2.63;;;1.10;;
17814;SDS011;9031;50.974;11.330;2023-12-22T12:33:31;5.40;;;1.20;;
17814;SDS011;9031;50.974;11.330;2023-12-22T12:35:58;5.13;;;1.67;;
17814;SDS011;9031;50.974;11.330;2023-12-22T12:38:48;3.83;;;1.00;;
17814;SDS011;9031;50.974;11.330;2023-12-22T12:41:31;3.00;;;1.10;;
17814;SDS011;9031;50.974;11.330;2023-12-22T12:44:00;4.17;;;1.20;;
17814;SDS011;9031;50.974;11.330;2023-12-22T12:46:34;12.37;;;1.73;;
17814;SDS011;9031;50.974;11.330;2023-12-22T12:49:07;4.27;;;1.30;;
17814;SDS011;9031;50.974;11.330;2023-12-22T12:51:36;6.77;;;1.80;;
17814;SDS011;9031;50.974;11.330;2023-12-22T12:54:03;4.07;;;1.57;;
17814;SDS011;9031;50.974;11.330;2023-12-22T12:56:35;2.80;;;1.50;;
17814;SDS011;9031;50.974;11.330;2023-12-22T12:59:12;2.60;;;1.20;;
17814;SDS011;9031;50.974;11.330;2023-12-22T13:01:39;4.53;;;1.07;;
17814;SDS011;9031;50.974;11.330;2023-12-22T13:04:09;4.33;;;1.50;;
17814;SDS011;9031;50.974;11.330;2023-12-22T13:06:35;1.20;;;0.90;;
17814;SDS011;9031;50.974;11.330;2023-12-22T13:09:07;9.77;;;1.80;;
17814;SDS011;9031;50.974;11.330;2023-12-22T13:11:33;17.20;;;2.83;;
17814;SDS011;9031;50.974;11.330;2023-12-22T13:14:01;1.67;;;0.90;;
17814;SDS011;9031;50.974;11.330;2023-12-22T13:16:27;3.97;;;1.03;;
17814;SDS011;9031;50.974;11.330;2023-12-22T13:18:59;1.33;;;0.77;;
17814;SDS011;9031;50.974;11.330;2023-12-22T13:21:25;2.87;;;1.10;;
17814;SDS011;9031;50.974;11.330;2023-12-22T13:24:07;3.73;;;1.30;;
17814;SDS011;9031;50.974;11.330;2023-12-22T13:26:40;1.43;;;1.00;;
17814;SDS011;9031;50.974;11.330;2023-12-22T13:29:06;2.53;;;1.17;;
17814;SDS011;9031;50.974;11.330;2023-12-22T13:31:33;2.30;;;1.00;;
17814;SDS011;9031;50.974;11.330;2023-12-22T13:34:01;7.97;;;1.47;;
17814;SDS011;9031;50.974;11.330;2023-12-22T13:36:27;2.73;;;1.00;;
17814;SDS011;9031;50.974;11.330;2023-12-22T13:38:53;2.10;;;0.97;;
17814;SDS011;9031;50.974;11.330;2023-12-22T13:41:19;7.60;;;1.87;;
17814;SDS011;9031;50.974;11.330;2023-12-22T13:43:45;4.37;;;1.07;;
17814;SDS011;9031;50.974;11.330;2023-12-22T13:46:12;2.67;;;1.40;;
17814;SDS011;9031;50.974;11.330;2023-12-22T13:48:39;3.03;;;1.33;;
17814;SDS011;9031;50.974;11.330;2023-12-22T13:51:05;1.10;;;1.00;;
17814;SDS011;9031;50.974;11.330;2023-12-22T13:53:31;1.50;;;0.87;;
17814;SDS011;9031;50.974;11.330;2023-12-22T13:55:57;5.20;;;1.30;;
17814;SDS011;9031;50.974;11.330;2023-12-22T13:58:26;10.33;;;1.93;;
17814;SDS011;9031;50.974;11.330;2023-12-22T14:00:52;1.53;;;0.90;;
17814;SDS011;9031;50.974;11.330;2023-12-22T14:03:18;1.80;;;1.00;;
17814;SDS011;9031;50.974;11.330;2023-12-22T14:05:47;2.03;;;0.90;;
17814;SDS011;9031;50.974;11.330;2023-12-22T14:08:14;2.53;;;1.10;;
17814;SDS011;9031;50.974;11.330;2023-12-22T14:10:46;2.10;;;0.97;;
17814;SDS011;9031;50.974;11.330;2023-12-22T14:13:12;0.90;;;0.90;;
17814;SDS011;9031;50.974;11.330;2023-12-22T14:15:38;11.77;;;2.10;;
17814;SDS011;9031;50.974;11.330;2023-12-22T14:18:04;2.50;;;0.73;;
17814;SDS011;9031;50.974;11.330;2023-12-22T14:20:29;1.07;;;0.80;;
17814;SDS011;9031;50.974;11.330;2023-12-22T14:22:55;3.77;;;1.07;;
17814;SDS011;9031;50.974;11.330;2023-12-22T14:25:20;1.17;;;0.70;;
17814;SDS011;9031;50.974;11.330;2023-12-22T14:27:46;1.07;;;0.77;;
17814;SDS011;9031;50.974;11.330;2023-12-22T14:30:12;0.60;;;0.60;;
17814;SDS011;9031;50.974;11.330;2023-12-22T14:32:38;1.27;;;0.90;;
17814;SDS011;9031;50.974;11.330;2023-12-22T14:35:04;3.17;;;1.20;;
17814;SDS011;9031;50.974;11.330;2023-12-22T14:37:30;1.57;;;0.90;;
17814;SDS011;9031;50.974;11.330;2023-12-22T14:39:55;2.70;;;1.00;;
17814;SDS011;9031;50.974;11.330;2023-12-22T14:42:21;3.37;;;0.80;;
17814;SDS011;9031;50.974;11.330;2023-12-22T14:44:46;0.63;;;0.63;;
17814;SDS011;9031;50.974;11.330;2023-12-22T14:47:12;3.90;;;1.20;;